Owatonna, MN

1:49 AM CDT on May 27, 2017 (GMT -0500)
Owatonna Degner Regional

Weather History for KOWA - September, 2012

Change the Weather History Date:

Monday, September 17, 2012

  Actual Average Record
Temperature  
Mean Temperature 56 °F -  
Max Temperature 66 °F 73 °F 92 °F (1988)
Min Temperature 46 °F 49 °F 35 °F (1971)
Degree Days  
Heating Degree Days 9    
Growing Degree Days 6 (Base 50)    
Moisture  
Dew Point 38 °F    
Average Humidity 51    
Maximum Humidity 82    
Minimum Humidity 22    
Precipitation  
Precipitation 0.10 in - - ()
Sea Level Pressure  
Sea Level Pressure 29.96 in    
Wind  
Wind Speed 9 mph (NNW)    
Max Wind Speed 20 mph    
Max Gust Speed 24 mph    
Visibility 10 miles    
Events Rain , Thunderstorm    
Averages and records for this station are not official NWS values.
T = Trace of Precipitation, MM = Missing Value Source: NWS Daily Summary

Daily Weather History Graph

Daily Weather History Graph

Search for Another Location

Airport or City:

Trip Planner

Search our weather history database for the weather conditions in past years. The results will help you decide how hot, cold, wet, or windy it might be!

Date:

Astronomy

Sep. 17, 2012 Rise Set
Actual Time 6:55 AM CDT 7:18 PM CDT
Civil Twilight 6:26 AM CDT 7:47 PM CDT
Nautical Twilight 5:51 AM CDT 8:21 PM CDT
Astronomical Twilight 5:16 AM CDT 8:56 PM CDT
Moon 8:51 AM CDT (9/17) 7:53 PM CDT (9/17)
Length of Visible Light 13h 21m
Length of Day
12h 23m
Waxing Crescent, 3% of the Moon is Illuminated
Sep 17
Waxing Crescent
Sep 22
First Quarter
Sep 29
Full
Oct 8
Last Quarter
Oct 15
New

Hourly Weather History & Observations

Time (CDT) Temp. Windchill Dew Point Humidity Pressure Visibility Wind Dir Wind Speed Gust Speed Precip Events Conditions
12:18 AM 66.2 °F - 37.4 °F 35% 29.93 in 10.0 mi North 9.2 mph - N/A   Clear
12:38 AM 64.4 °F - 37.4 °F 37% 29.93 in 10.0 mi North 9.2 mph - N/A   Clear
12:58 AM 64.4 °F - 35.6 °F 34% 29.91 in 10.0 mi North 9.2 mph - N/A   Clear
1:18 AM 64.4 °F - 33.8 °F 32% 29.92 in 10.0 mi North 8.1 mph - N/A   Clear
1:38 AM 64.4 °F - 35.6 °F 34% 29.92 in 10.0 mi NNE 5.8 mph - N/A   Clear
1:58 AM 64.4 °F - 37.4 °F 37% 29.92 in 10.0 mi North 5.8 mph - N/A   Clear
2:18 AM 62.6 °F - 37.4 °F 39% 29.93 in 10.0 mi North 6.9 mph - N/A   Clear
2:38 AM 62.6 °F - 37.4 °F 39% 29.93 in 10.0 mi North 6.9 mph - N/A   Clear
2:58 AM 62.6 °F - 39.2 °F 42% 29.93 in 10.0 mi North 5.8 mph - N/A   Scattered Clouds
3:18 AM 62.6 °F - 39.2 °F 42% 29.93 in 10.0 mi North 10.4 mph - N/A   Mostly Cloudy
3:38 AM 62.6 °F - 37.4 °F 39% 29.94 in 10.0 mi North 12.7 mph 18.4 mph N/A   Overcast
3:58 AM 62.6 °F - 39.2 °F 42% 29.93 in 10.0 mi North 9.2 mph 12.7 mph N/A   Overcast
4:18 AM 62.6 °F - 39.2 °F 42% 29.93 in 10.0 mi North 5.8 mph - N/A   Overcast
4:38 AM 62.6 °F - 39.2 °F 42% 29.94 in 10.0 mi North 8.1 mph - N/A   Overcast
4:58 AM 60.8 °F - 37.4 °F 42% 29.94 in 10.0 mi North 10.4 mph - N/A   Overcast
5:18 AM 60.8 °F - 39.2 °F 45% 29.95 in 10.0 mi North 5.8 mph - N/A   Overcast
5:38 AM 60.8 °F - 39.2 °F 45% 29.96 in 10.0 mi NW 3.5 mph - N/A Thunderstorm Unknown
5:58 AM 59.0 °F - 42.8 °F 55% 29.95 in 10.0 mi Calm Calm - N/A   Unknown
6:18 AM 59.0 °F - 42.8 °F 55% 29.93 in 10.0 mi North 4.6 mph - N/A   Unknown
6:38 AM 57.2 °F - 42.8 °F 59% 29.93 in 10.0 mi NNW 8.1 mph - N/A Rain Rain
6:58 AM 55.4 °F - 46.4 °F 72% 29.94 in 10.0 mi NNW 8.1 mph - N/A Rain Rain
7:18 AM 55.4 °F - 48.2 °F 77% 29.95 in 10.0 mi NNW 5.8 mph - 0.04 in Rain Rain
7:38 AM 55.4 °F - 48.2 °F 77% 29.94 in 10.0 mi NNW 5.8 mph - 0.04 in Rain Light Rain
7:58 AM 55.4 °F - 48.2 °F 77% 29.95 in 10.0 mi NNW 6.9 mph - N/A Rain Light Rain
8:18 AM 55.4 °F - 50.0 °F 82% 29.95 in 10.0 mi NNW 9.2 mph - 0.01 in Rain Rain
8:38 AM 55.4 °F - 48.2 °F 77% 29.96 in 10.0 mi NNW 6.9 mph - 0.02 in Rain Light Rain
8:58 AM 53.6 °F - 46.4 °F 77% 29.98 in 10.0 mi NW 11.5 mph - N/A Rain Light Rain
9:18 AM 53.6 °F - 48.2 °F 82% 29.98 in 10.0 mi WNW 8.1 mph - 0.01 in Rain Light Rain
9:38 AM 53.6 °F - 46.4 °F 77% 29.99 in 10.0 mi NW 11.5 mph - 0.03 in Rain Light Rain
9:58 AM 53.6 °F - 46.4 °F 77% 29.99 in 10.0 mi NW 12.7 mph - N/A Rain Light Rain
10:18 AM 53.6 °F - 46.4 °F 77% 29.99 in 10.0 mi NW 10.4 mph - 0.01 in Rain Rain
10:38 AM 53.6 °F - 46.4 °F 77% 29.98 in 10.0 mi NW 10.4 mph - 0.01 in   Light Drizzle
10:58 AM 53.6 °F - 46.4 °F 77% 29.98 in 10.0 mi NW 9.2 mph - N/A   Unknown
11:18 AM 53.6 °F - 46.4 °F 77% 29.99 in 10.0 mi NW 11.5 mph - N/A   Unknown
11:38 AM 53.6 °F - 44.6 °F 72% 29.98 in 10.0 mi NNW 10.4 mph - N/A   Unknown
11:58 AM 55.4 °F - 44.6 °F 67% 29.99 in 10.0 mi NNW 10.4 mph - N/A   Unknown
12:18 PM 55.4 °F - 44.6 °F 67% 29.99 in 10.0 mi NW 9.2 mph - N/A   Mostly Cloudy
12:38 PM 59.0 °F - 42.8 °F 55% 29.99 in 10.0 mi NW 11.5 mph - N/A   Unknown
12:57 PM 60.8 °F - 41.0 °F 48% 29.98 in 10.0 mi NNW 17.3 mph 24.2 mph N/A   Scattered Clouds
1:18 PM 60.8 °F - 41.0 °F 48% 29.98 in 10.0 mi NNW 13.8 mph - N/A   Mostly Cloudy
1:38 PM 60.8 °F - 39.2 °F 45% 29.97 in 10.0 mi NNW 16.1 mph - N/A   Scattered Clouds
1:58 PM 62.6 °F - 37.4 °F 39% 29.97 in 10.0 mi NNW 13.8 mph 19.6 mph N/A   Scattered Clouds
2:18 PM 62.6 °F - 37.4 °F 39% 29.96 in 10.0 mi NNW 10.4 mph 17.3 mph N/A   Unknown
2:38 PM 62.6 °F - 35.6 °F 37% 29.96 in 10.0 mi NNW 16.1 mph 20.7 mph N/A   Unknown
2:58 PM 62.6 °F - 33.8 °F 34% 29.95 in 10.0 mi NW 13.8 mph 23.0 mph N/A   Scattered Clouds
3:18 PM 64.4 °F - 32.0 °F 30% 29.95 in 10.0 mi NNW 18.4 mph 21.9 mph N/A   Unknown
3:38 PM 64.4 °F - 30.2 °F 28% 29.95 in 10.0 mi NW 17.3 mph 21.9 mph N/A   Unknown
3:57 PM 62.6 °F - 33.8 °F 34% 29.95 in 10.0 mi NW 13.8 mph - N/A   Scattered Clouds
4:18 PM 64.4 °F - 28.4 °F 26% 29.95 in 10.0 mi NW 19.6 mph 23.0 mph N/A   Mostly Cloudy
4:38 PM 64.4 °F - 28.4 °F 26% 29.94 in 10.0 mi WNW 16.1 mph 21.9 mph N/A   Unknown
4:58 PM 64.4 °F - 28.4 °F 26% 29.94 in 10.0 mi NNW 18.4 mph 21.9 mph N/A   Unknown
5:18 PM 64.4 °F - 26.6 °F 24% 29.94 in 10.0 mi NNW 11.5 mph - N/A   Unknown
5:38 PM 62.6 °F - 23.0 °F 22% 29.94 in 10.0 mi NNW 17.3 mph - N/A   Unknown
5:58 PM 62.6 °F - 24.8 °F 24% 29.95 in 10.0 mi NW 11.5 mph - N/A   Unknown
6:18 PM 62.6 °F - 26.6 °F 26% 29.95 in 10.0 mi NNW 10.4 mph - N/A   Unknown
6:38 PM 60.8 °F - 24.8 °F 25% 29.95 in 10.0 mi NNW 11.5 mph 16.1 mph N/A   Unknown
6:58 PM 57.2 °F - 28.4 °F 33% 29.96 in 10.0 mi NNW 8.1 mph - N/A   Unknown
7:18 PM 55.4 °F - 30.2 °F 38% 29.96 in 10.0 mi NW 6.9 mph - N/A   Clear
7:38 PM 53.6 °F - 32.0 °F 44% 29.96 in 10.0 mi NW 5.8 mph - N/A   Clear
7:58 PM 51.8 °F - 33.8 °F 50% 29.96 in 10.0 mi NW 4.6 mph - N/A   Clear
8:18 PM 51.8 °F - 33.8 °F 50% 29.97 in 10.0 mi WNW 5.8 mph - N/A   Unknown
8:38 PM 50.0 °F - 35.6 °F 58% 29.97 in 10.0 mi Calm Calm - N/A   Unknown
8:58 PM 48.2 °F - 35.6 °F 62% 29.97 in 10.0 mi NW 4.6 mph - N/A   Unknown
9:18 PM 48.2 °F - 35.6 °F 62% 29.97 in 10.0 mi NW 5.8 mph - N/A   Clear
9:38 PM 48.2 °F - 35.6 °F 62% 29.97 in 10.0 mi WNW 5.8 mph - N/A   Scattered Clouds
9:58 PM 50.0 °F - 37.4 °F 62% 29.97 in 10.0 mi NW 4.6 mph - N/A   Unknown
10:18 PM 50.0 °F - 35.6 °F 58% 29.98 in 10.0 mi Calm Calm - N/A   Unknown
10:38 PM 50.0 °F - 35.6 °F 58% 29.98 in 10.0 mi Calm Calm - N/A   Unknown
11:18 PM 48.2 °F - 35.6 °F 62% 29.99 in 10.0 mi Calm Calm - N/A   Clear
11:38 PM 46.4 °F - 35.6 °F 66% 29.98 in 10.0 mi Calm Calm - N/A   Clear
11:58 PM 46.4 °F 45.2 °F 35.6 °F 66% 29.98 in 10.0 mi WNW 3.5 mph - N/A   Clear